createdAt,value
2022-08-22T00:03:01.919Z,17.30
2022-08-22T00:03:16.022Z,17.92
2022-08-22T00:06:16.094Z,17.30
2022-08-22T00:09:19.476Z,17.09
2022-08-22T00:12:16.564Z,17.29
2022-08-22T00:15:42.323Z,17.10
2022-08-22T00:18:31.871Z,17.16
2022-08-22T00:21:27.388Z,17.21
2022-08-22T00:24:26.696Z,16.93
2022-08-22T00:27:19.510Z,16.85
2022-08-22T00:30:13.764Z,17.20
2022-08-22T00:33:06.511Z,17.30
2022-08-22T00:36:07.175Z,17.10
2022-08-22T00:39:07.969Z,17.21
2022-08-22T00:42:48.307Z,17.46
2022-08-22T00:45:55.010Z,17.05
2022-08-22T00:49:06.424Z,17.30
2022-08-22T00:52:30.262Z,16.99
2022-08-22T00:55:37.570Z,17.08
2022-08-22T00:59:18.033Z,16.89
2022-08-22T01:02:31.947Z,16.88
2022-08-22T01:05:36.353Z,16.80
2022-08-22T01:08:39.647Z,17.14
2022-08-22T01:12:03.534Z,17.25
2022-08-22T01:14:56.989Z,16.91
2022-08-22T01:18:18.272Z,17.08
2022-08-22T01:21:47.764Z,17.15
2022-08-22T01:25:21.905Z,16.80
2022-08-22T01:28:57.683Z,17.14
2022-08-22T01:32:29.561Z,17.23
2022-08-22T01:35:38.085Z,17.38
2022-08-22T01:38:51.900Z,17.09
2022-08-22T01:41:56.520Z,17.64
2022-08-22T01:45:04.030Z,17.40
2022-08-22T01:47:57.045Z,17.84
2022-08-22T01:50:52.396Z,17.44
2022-08-22T01:53:45.909Z,18.03
2022-08-22T01:56:37.207Z,18.61
2022-08-22T01:59:34.174Z,18.53
2022-08-22T02:02:41.215Z,18.34
2022-08-22T02:05:37.298Z,18.52
2022-08-22T02:08:39.050Z,18.57
2022-08-22T02:11:40.070Z,18.17
2022-08-22T02:14:41.857Z,18.26
2022-08-22T02:17:35.177Z,18.05
2022-08-22T02:20:27.522Z,17.59
2022-08-22T02:23:23.649Z,18.11
2022-08-22T02:26:18.467Z,18.25
2022-08-22T02:29:13.060Z,18.19
2022-08-22T02:32:07.953Z,18.19
2022-08-22T02:35:06.955Z,18.34
2022-08-22T02:38:09.293Z,17.94
2022-08-22T02:41:07.173Z,17.46
2022-08-22T02:44:03.080Z,17.78
2022-08-22T02:46:57.209Z,17.73
2022-08-22T02:49:56.308Z,18.02
2022-08-22T02:52:55.806Z,18.01
2022-08-22T02:55:51.629Z,18.31
2022-08-22T02:58:46.635Z,18.04
2022-08-22T03:01:40.708Z,18.11
2022-08-22T03:04:48.514Z,18.21
2022-08-22T03:07:42.417Z,18.83
2022-08-22T03:10:38.182Z,18.92
2022-08-22T03:13:37.155Z,18.84
2022-08-22T03:16:34.297Z,18.57
2022-08-22T03:19:31.438Z,18.34
2022-08-22T03:22:26.183Z,18.42
2022-08-22T03:25:27.138Z,18.20
2022-08-22T03:28:21.587Z,18.28
2022-08-22T03:31:14.732Z,18.23
2022-08-22T03:34:22.607Z,18.41
2022-08-22T03:37:20.337Z,18.15
2022-08-22T03:40:23.732Z,18.28
2022-08-22T03:43:35.832Z,18.64
2022-08-22T03:46:41.135Z,18.87
2022-08-22T03:49:59.896Z,18.89
2022-08-22T03:53:19.982Z,19.25
2022-08-22T03:56:54.076Z,19.29
2022-08-22T04:00:28.910Z,19.43
2022-08-22T04:03:53.769Z,19.41
2022-08-22T04:07:08.869Z,19.35
2022-08-22T04:10:38.062Z,19.38
2022-08-22T04:14:01.055Z,19.45
2022-08-22T04:17:07.533Z,19.69
2022-08-22T04:20:16.732Z,19.53
2022-08-22T04:23:41.267Z,19.57
2022-08-22T04:26:38.049Z,19.62
2022-08-22T04:29:33.154Z,19.33
2022-08-22T04:32:27.852Z,19.41
2022-08-22T04:35:27.450Z,19.39
2022-08-22T04:38:22.414Z,19.59
2022-08-22T04:41:15.118Z,19.57
2022-08-22T04:44:11.708Z,19.62
2022-08-22T04:47:09.466Z,19.72
2022-08-22T04:50:03.584Z,19.74
2022-08-22T04:53:09.078Z,19.77
2022-08-22T04:56:07.518Z,19.97
2022-08-22T04:58:59.348Z,19.35
2022-08-22T05:01:54.062Z,19.48
2022-08-22T05:04:49.162Z,18.82
2022-08-22T05:07:41.608Z,18.70
2022-08-22T05:10:36.753Z,19.16
2022-08-22T05:13:30.258Z,18.58
2022-08-22T05:16:24.540Z,18.57
2022-08-22T05:19:23.030Z,18.90
2022-08-22T05:22:21.824Z,18.74
2022-08-22T05:25:13.233Z,18.69
2022-08-22T05:28:10.774Z,19.22
2022-08-22T05:31:00.785Z,19.41
2022-08-22T05:33:53.132Z,19.79
2022-08-22T05:36:46.353Z,19.80
2022-08-22T05:39:38.788Z,19.91
2022-08-22T05:42:30.372Z,19.52
2022-08-22T05:45:20.933Z,19.75
2022-08-22T05:48:17.399Z,19.92
2022-08-22T05:51:16.238Z,19.85
2022-08-22T05:54:13.418Z,20.22
2022-08-22T05:57:10.579Z,20.16
2022-08-22T06:00:06.773Z,19.87
2022-08-22T06:03:12.228Z,19.44
2022-08-22T06:06:08.073Z,19.67
2022-08-22T06:09:04.118Z,20.22
2022-08-22T06:11:59.011Z,20.04
2022-08-22T06:14:56.563Z,19.93
2022-08-22T06:17:49.427Z,19.92
2022-08-22T06:20:40.901Z,19.76
2022-08-22T06:23:31.025Z,19.37
2022-08-22T06:26:21.476Z,19.98
2022-08-22T06:29:11.343Z,20.24
2022-08-22T06:32:03.629Z,20.12
2022-08-22T06:34:56.281Z,20.33
2022-08-22T06:37:47.114Z,20.41
2022-08-22T06:40:35.982Z,20.67
2022-08-22T06:43:26.050Z,20.94
2022-08-22T06:46:17.371Z,20.40
2022-08-22T06:49:09.425Z,20.54
2022-08-22T06:52:01.654Z,20.45
2022-08-22T06:54:53.464Z,20.60
2022-08-22T06:57:47.270Z,20.82
2022-08-22T07:00:37.166Z,20.71
2022-08-22T07:03:32.004Z,20.61
2022-08-22T07:06:31.647Z,20.62
2022-08-22T07:09:24.982Z,21.36
2022-08-22T07:12:18.466Z,21.31
2022-08-22T07:15:13.455Z,21.16
2022-08-22T07:18:05.497Z,20.96
2022-08-22T07:20:56.318Z,21.22
2022-08-22T07:23:48.608Z,21.51
2022-08-22T07:26:57.228Z,21.69
2022-08-22T07:29:54.030Z,21.79
2022-08-22T07:32:53.100Z,21.92
2022-08-22T07:35:53.137Z,22.03
2022-08-22T07:38:46.605Z,22.02
2022-08-22T07:41:59.686Z,21.88
2022-08-22T07:45:02.990Z,21.92
2022-08-22T07:48:04.058Z,21.96
2022-08-22T07:51:01.603Z,21.85
2022-08-22T07:54:00.725Z,21.95
2022-08-22T07:56:57.871Z,21.83
2022-08-22T07:59:49.382Z,22.04
2022-08-22T08:02:39.190Z,21.95
2022-08-22T08:05:32.290Z,22.00
2022-08-22T08:08:26.680Z,21.90
2022-08-22T08:11:19.010Z,21.92
2022-08-22T08:14:13.666Z,21.95
2022-08-22T08:17:06.105Z,22.00
2022-08-22T08:19:56.310Z,21.99
2022-08-22T08:22:47.896Z,21.96
2022-08-22T08:25:58.742Z,22.03
2022-08-22T08:28:49.565Z,22.13
2022-08-22T08:31:43.222Z,22.00
2022-08-22T08:34:34.718Z,22.19
2022-08-22T08:37:29.270Z,22.37
2022-08-22T08:40:28.150Z,22.52
2022-08-22T08:43:34.487Z,22.54
2022-08-22T08:46:58.680Z,22.91
2022-08-22T08:50:05.658Z,22.95
2022-08-22T08:53:18.264Z,22.65
2022-08-22T08:56:19.762Z,22.55
2022-08-22T08:59:21.786Z,22.95
2022-08-22T09:02:25.088Z,23.10
2022-08-22T09:05:59.325Z,23.08
2022-08-22T09:09:13.984Z,23.22
2022-08-22T09:12:38.428Z,23.59
2022-08-22T09:16:05.596Z,23.75
2022-08-22T09:19:24.455Z,23.72
2022-08-22T09:22:50.846Z,23.77
2022-08-22T09:25:46.350Z,23.86
2022-08-22T09:28:41.048Z,23.62
2022-08-22T09:31:47.818Z,23.85
2022-08-22T09:34:56.838Z,23.95
2022-08-22T09:38:19.593Z,23.64
2022-08-22T09:41:27.268Z,23.41
2022-08-22T09:44:24.176Z,23.22
2022-08-22T09:47:24.521Z,23.13
2022-08-22T09:50:17.696Z,22.93
2022-08-22T09:53:15.424Z,22.98
2022-08-22T09:56:11.710Z,22.82
2022-08-22T09:59:09.954Z,22.59
2022-08-22T10:02:06.035Z,22.62
2022-08-22T10:05:02.094Z,22.57
2022-08-22T10:08:03.718Z,22.59
2022-08-22T10:11:08.733Z,22.12
2022-08-22T10:14:03.588Z,22.30
2022-08-22T10:17:03.717Z,22.34
2022-08-22T10:19:58.188Z,22.13
2022-08-22T10:22:57.362Z,21.84
2022-08-22T10:25:51.079Z,21.49
2022-08-22T10:28:48.037Z,21.48
2022-08-22T10:31:58.641Z,21.04
2022-08-22T10:34:53.031Z,21.06
2022-08-22T10:37:52.847Z,21.84
2022-08-22T10:40:50.051Z,21.93
2022-08-22T10:43:47.553Z,22.30
2022-08-22T10:46:52.567Z,22.46
2022-08-22T10:49:51.092Z,22.22
2022-08-22T10:52:47.452Z,22.38
2022-08-22T10:55:41.700Z,22.39
2022-08-22T10:58:35.710Z,22.33
2022-08-22T11:01:37.190Z,22.41
2022-08-22T11:04:53.831Z,22.48
2022-08-22T11:07:50.184Z,22.50
2022-08-22T11:10:52.338Z,22.56
2022-08-22T11:13:58.343Z,22.46
2022-08-22T11:16:58.092Z,21.88
2022-08-22T11:20:03.549Z,21.70
2022-08-22T11:23:12.457Z,22.12
2022-08-22T11:26:13.441Z,22.20
2022-08-22T11:29:14.201Z,21.88
2022-08-22T11:32:14.782Z,21.75
2022-08-22T11:35:09.333Z,22.05
2022-08-22T11:38:03.716Z,22.08
2022-08-22T11:41:02.038Z,22.71
2022-08-22T11:44:00.649Z,22.52
2022-08-22T11:46:55.169Z,22.84
2022-08-22T11:49:57.556Z,22.86
2022-08-22T11:52:58.166Z,23.50
2022-08-22T11:55:57.720Z,24.03
2022-08-22T11:58:57.197Z,24.40
2022-08-22T12:01:52.741Z,25.53
2022-08-22T12:04:45.184Z,26.16
2022-08-22T12:07:40.468Z,27.37
2022-08-22T12:10:33.891Z,27.86
2022-08-22T12:13:36.835Z,28.04
2022-08-22T12:16:33.473Z,28.81
2022-08-22T12:19:32.944Z,29.05
2022-08-22T12:22:49.988Z,29.26
2022-08-22T12:26:10.917Z,29.79
2022-08-22T12:29:16.806Z,29.41
2022-08-22T12:32:34.138Z,29.93
2022-08-22T12:35:38.045Z,30.13
2022-08-22T12:38:45.189Z,30.13
2022-08-22T12:42:07.106Z,30.76
2022-08-22T12:45:23.370Z,31.14
2022-08-22T12:48:26.867Z,31.08
2022-08-22T12:51:29.577Z,30.90
2022-08-22T12:54:44.677Z,30.79
2022-08-22T12:57:42.991Z,30.56
2022-08-22T13:00:35.716Z,30.32
2022-08-22T13:03:33.919Z,30.12
2022-08-22T13:06:50.311Z,29.99
2022-08-22T13:09:47.721Z,29.83
2022-08-22T13:12:45.129Z,29.70
2022-08-22T13:15:37.993Z,30.09
2022-08-22T13:18:37.408Z,30.68
2022-08-22T13:21:31.921Z,31.05
2022-08-22T13:24:40.254Z,31.23
2022-08-22T13:27:51.146Z,31.00
2022-08-22T13:30:41.920Z,30.78
2022-08-22T13:33:35.738Z,30.86
2022-08-22T13:36:26.831Z,31.11
2022-08-22T13:39:27.163Z,31.31
2022-08-22T13:42:30.396Z,31.71
2022-08-22T13:45:25.146Z,30.92
2022-08-22T13:48:16.655Z,30.98
2022-08-22T13:51:10.713Z,30.71
2022-08-22T13:54:10.911Z,31.16
2022-08-22T13:57:07.399Z,30.66
2022-08-22T14:00:09.892Z,30.53
2022-08-22T14:03:08.223Z,30.62
2022-08-22T14:06:32.846Z,31.11
2022-08-22T14:09:15.286Z,31.21
2022-08-22T14:12:12.024Z,31.60
2022-08-22T14:15:03.494Z,31.59
2022-08-22T14:17:56.868Z,31.87
2022-08-22T14:20:49.637Z,31.99
2022-08-22T14:23:38.506Z,32.25
2022-08-22T14:26:33.236Z,32.60
2022-08-22T14:29:28.029Z,32.27
2022-08-22T14:32:47.550Z,31.83
2022-08-22T14:35:42.053Z,31.75
2022-08-22T14:38:38.030Z,31.50
2022-08-22T14:41:52.771Z,31.35
2022-08-22T14:44:50.017Z,30.91
2022-08-22T14:47:55.061Z,30.93
2022-08-22T14:50:59.826Z,30.55
2022-08-22T14:53:50.670Z,30.39
2022-08-22T14:56:39.575Z,30.10
2022-08-22T14:59:39.676Z,29.94
2022-08-22T15:02:31.535Z,29.88
2022-08-22T15:05:24.330Z,29.86
2022-08-22T15:08:27.688Z,29.52
2022-08-22T15:11:25.708Z,29.41
2022-08-22T15:14:24.132Z,29.57
2022-08-22T15:17:13.087Z,29.37
2022-08-22T15:20:27.957Z,29.04
2022-08-22T15:23:20.650Z,28.36
2022-08-22T15:26:17.970Z,28.58
2022-08-22T15:29:10.833Z,28.29
2022-08-22T15:32:03.317Z,27.88
2022-08-22T15:34:53.552Z,27.43
2022-08-22T15:37:57.596Z,27.60
2022-08-22T15:40:47.069Z,27.70
2022-08-22T15:43:37.680Z,27.73
2022-08-22T15:46:32.496Z,27.05
2022-08-22T15:49:28.616Z,27.27
2022-08-22T15:52:25.878Z,27.19
2022-08-22T15:55:22.257Z,26.88
2022-08-22T15:58:14.735Z,26.54
2022-08-22T16:01:18.832Z,26.53
2022-08-22T16:04:15.942Z,26.08
2022-08-22T16:07:23.149Z,26.05
2022-08-22T16:10:28.786Z,25.44
2022-08-22T16:13:38.022Z,25.25
2022-08-22T16:17:03.520Z,25.10
2022-08-22T16:20:31.526Z,25.36
2022-08-22T16:23:20.052Z,25.10
2022-08-22T16:26:15.327Z,24.89
2022-08-22T16:29:08.836Z,24.48
2022-08-22T16:32:01.588Z,24.84
2022-08-22T16:34:50.444Z,23.75
2022-08-22T16:37:48.875Z,24.42
2022-08-22T16:40:48.697Z,24.04
2022-08-22T16:43:37.424Z,23.65
2022-08-22T16:46:46.295Z,23.52
2022-08-22T16:49:40.256Z,23.44
2022-08-22T16:52:57.733Z,23.28
2022-08-22T16:56:12.482Z,22.96
2022-08-22T16:59:23.412Z,22.85
2022-08-22T17:02:26.820Z,23.67
2022-08-22T17:05:29.848Z,23.16
2022-08-22T17:08:44.737Z,22.74
2022-08-22T17:11:47.339Z,22.64
2022-08-22T17:14:43.772Z,22.21
2022-08-22T17:17:40.574Z,22.40
2022-08-22T17:20:40.592Z,22.68
2022-08-22T17:23:38.014Z,22.41
2022-08-22T17:26:38.741Z,22.13
2022-08-22T17:29:41.404Z,22.21
2022-08-22T17:32:38.311Z,22.24
2022-08-22T17:35:45.256Z,21.88
2022-08-22T17:38:46.513Z,22.16
2022-08-22T17:41:41.516Z,22.02
2022-08-22T17:44:39.843Z,21.52
2022-08-22T17:47:33.376Z,21.76
2022-08-22T17:50:28.241Z,21.17
2022-08-22T17:53:33.719Z,21.22
2022-08-22T17:56:27.495Z,21.20
2022-08-22T17:59:21.930Z,21.50
2022-08-22T18:02:16.492Z,21.84
2022-08-22T18:05:12.498Z,21.90
2022-08-22T18:08:08.761Z,22.63
2022-08-22T18:11:04.448Z,22.92
2022-08-22T18:13:58.975Z,22.93
2022-08-22T18:16:56.566Z,23.06
2022-08-22T18:19:55.219Z,23.12
2022-08-22T18:22:49.905Z,23.19
2022-08-22T18:25:43.213Z,23.15
2022-08-22T18:28:41.925Z,22.58
2022-08-22T18:31:46.507Z,22.17
2022-08-22T18:34:41.285Z,22.01
2022-08-22T18:37:49.477Z,22.60
2022-08-22T18:40:49.996Z,22.48
2022-08-22T18:43:42.028Z,22.57
2022-08-22T18:46:40.834Z,22.38
2022-08-22T18:49:45.714Z,22.66
2022-08-22T18:52:40.287Z,22.77
2022-08-22T18:55:51.202Z,22.92
2022-08-22T18:59:06.001Z,22.94
2022-08-22T19:02:11.478Z,22.86
2022-08-22T19:05:17.622Z,23.03
2022-08-22T19:08:36.807Z,23.12
2022-08-22T19:11:37.489Z,23.10
2022-08-22T19:14:41.863Z,23.07
2022-08-22T19:18:08.199Z,22.67
2022-08-22T19:21:41.077Z,22.71
2022-08-22T19:25:04.598Z,22.89
2022-08-22T19:28:26.501Z,22.83
2022-08-22T19:31:24.720Z,22.58
2022-08-22T19:34:19.428Z,22.36
2022-08-22T19:37:33.017Z,22.69
2022-08-22T19:40:53.385Z,22.34
2022-08-22T19:43:42.308Z,22.36
2022-08-22T19:46:37.852Z,21.97
2022-08-22T19:49:30.977Z,21.80
2022-08-22T19:52:31.317Z,21.71
2022-08-22T19:55:29.305Z,21.34
2022-08-22T19:58:32.812Z,21.16
2022-08-22T20:01:42.956Z,20.23
2022-08-22T20:04:43.098Z,20.36
2022-08-22T20:07:45.398Z,20.43
2022-08-22T20:10:44.378Z,20.64
2022-08-22T20:13:35.378Z,21.23
2022-08-22T20:16:44.622Z,21.02
2022-08-22T20:20:16.505Z,20.79
2022-08-22T20:23:02.023Z,20.30
2022-08-22T20:25:55.660Z,20.23
2022-08-22T20:28:48.964Z,20.51
2022-08-22T20:31:38.458Z,20.55
2022-08-22T20:34:29.705Z,20.19
2022-08-22T20:37:40.399Z,20.34
2022-08-22T20:40:55.097Z,20.94
2022-08-22T20:43:51.565Z,20.15
2022-08-22T20:46:57.686Z,20.13
2022-08-22T20:49:50.186Z,20.71
2022-08-22T20:52:43.782Z,20.11
2022-08-22T20:55:53.822Z,20.20
2022-08-22T20:58:47.142Z,20.21
2022-08-22T21:01:38.698Z,20.63
2022-08-22T21:04:32.915Z,20.78
2022-08-22T21:07:23.847Z,20.89
2022-08-22T21:10:37.554Z,20.99
2022-08-22T21:13:30.430Z,20.95
2022-08-22T21:16:21.746Z,20.62
2022-08-22T21:19:18.348Z,20.47
2022-08-22T21:22:13.299Z,20.88
2022-08-22T21:25:02.178Z,20.83
2022-08-22T21:27:53.491Z,20.81
2022-08-22T21:30:43.325Z,21.06
2022-08-22T21:33:35.891Z,21.06
2022-08-22T21:36:27.958Z,21.20
2022-08-22T21:39:20.482Z,21.27
2022-08-22T21:42:22.695Z,21.33
2022-08-22T21:45:15.229Z,21.18
2022-08-22T21:48:25.544Z,21.29
2022-08-22T21:51:28.266Z,20.82
2022-08-22T21:54:43.613Z,20.33
2022-08-22T21:57:36.759Z,20.21
2022-08-22T22:00:49.907Z,20.14
2022-08-22T22:03:39.846Z,20.01
2022-08-22T22:06:28.666Z,20.31
2022-08-22T22:09:17.078Z,20.02
2022-08-22T22:12:05.636Z,19.83
2022-08-22T22:14:54.172Z,19.84
2022-08-22T22:17:43.501Z,19.43
2022-08-22T22:20:34.052Z,19.38
2022-08-22T22:23:23.306Z,19.25
2022-08-22T22:26:12.289Z,19.46
2022-08-22T22:29:00.652Z,19.20
2022-08-22T22:31:49.230Z,19.47
2022-08-22T22:34:39.217Z,19.49
2022-08-22T22:37:30.356Z,19.48
2022-08-22T22:40:21.959Z,19.84
2022-08-22T22:43:13.949Z,19.89
2022-08-22T22:46:02.344Z,19.68
2022-08-22T22:48:50.938Z,19.79
2022-08-22T22:51:40.692Z,19.82
2022-08-22T22:54:30.534Z,19.65
2022-08-22T22:57:25.453Z,19.46
2022-08-22T23:00:15.666Z,19.60
2022-08-22T23:03:06.965Z,19.72
2022-08-22T23:05:55.430Z,19.89
2022-08-22T23:08:43.983Z,20.30
2022-08-22T23:11:34.048Z,20.59
2022-08-22T23:14:22.652Z,20.66
2022-08-22T23:17:11.016Z,20.67
2022-08-22T23:19:59.348Z,20.78
2022-08-22T23:22:47.812Z,20.78
2022-08-22T23:25:36.200Z,20.81
2022-08-22T23:28:25.988Z,20.61
2022-08-22T23:31:17.203Z,20.57
2022-08-22T23:34:07.881Z,20.52
2022-08-22T23:36:58.430Z,20.64
2022-08-22T23:39:47.268Z,20.66
2022-08-22T23:42:35.904Z,20.90
2022-08-22T23:45:25.785Z,20.87
2022-08-22T23:48:14.203Z,20.86
2022-08-22T23:51:02.577Z,21.01
2022-08-22T23:53:51.631Z,21.01
2022-08-22T23:56:43.634Z,21.02
2022-08-22T23:59:34.294Z,20.84
